createdAt,value
2019-03-01T00:00:18.075Z,10.57
2019-03-01T00:02:48.677Z,10.43
2019-03-01T00:06:12.609Z,10.17
2019-03-01T00:09:54.991Z,10.37
2019-03-01T00:13:22.567Z,11.10
2019-03-01T00:16:56.474Z,11.00
2019-03-01T00:20:35.887Z,10.65
2019-03-01T00:23:42.089Z,11.97
2019-03-01T00:27:08.137Z,11.27
2019-03-01T00:30:21.840Z,12.83
2019-03-01T00:33:25.670Z,12.20
2019-03-01T00:36:50.478Z,12.87
2019-03-01T00:40:06.528Z,12.57
2019-03-01T00:43:20.163Z,13.27
2019-03-01T00:45:50.721Z,13.30
2019-03-01T00:48:21.243Z,14.07
2019-03-01T00:50:51.783Z,14.23
2019-03-01T00:53:22.397Z,15.03
2019-03-01T00:55:52.947Z,15.27
2019-03-01T00:58:23.553Z,16.03
2019-03-01T01:00:54.045Z,15.40
2019-03-01T01:03:24.656Z,15.13
2019-03-01T01:05:55.262Z,15.07
2019-03-01T01:08:25.845Z,15.17
2019-03-01T01:10:56.358Z,15.17
2019-03-01T01:13:26.852Z,16.10
2019-03-01T01:15:57.486Z,15.30
2019-03-01T01:18:28.006Z,15.67
2019-03-01T01:20:58.598Z,15.10
2019-03-01T01:23:29.174Z,15.13
2019-03-01T01:25:59.629Z,15.77
2019-03-01T01:28:30.122Z,15.93
2019-03-01T01:31:00.637Z,14.47
2019-03-01T01:33:31.123Z,15.80
2019-03-01T01:36:01.665Z,15.10
2019-03-01T01:38:32.157Z,14.53
2019-03-01T01:41:02.709Z,14.13
2019-03-01T01:43:33.212Z,15.47
2019-03-01T01:46:03.671Z,14.50
2019-03-01T01:48:34.228Z,14.13
2019-03-01T01:51:04.707Z,13.23
2019-03-01T01:53:35.384Z,13.40
2019-03-01T01:56:06.039Z,13.27
2019-03-01T01:58:36.505Z,13.23
2019-03-01T02:01:07.210Z,13.50
2019-03-01T02:03:37.793Z,13.50
2019-03-01T02:06:08.304Z,13.20
2019-03-01T02:08:38.880Z,13.33
2019-03-01T02:11:09.413Z,13.47
2019-03-01T02:13:40.000Z,13.17
2019-03-01T02:16:10.536Z,14.78
2019-03-01T02:18:41.122Z,14.03
2019-03-01T02:21:11.833Z,15.20
2019-03-01T02:23:42.323Z,14.90
2019-03-01T02:26:12.797Z,16.23
2019-03-01T02:28:43.373Z,15.70
2019-03-01T02:31:14.413Z,16.60
2019-03-01T02:33:44.940Z,15.47
2019-03-01T02:36:15.546Z,16.40
2019-03-01T02:38:46.246Z,15.60
2019-03-01T02:41:16.725Z,16.10
2019-03-01T02:43:47.217Z,16.63
2019-03-01T02:46:17.750Z,16.43
2019-03-01T02:48:48.328Z,16.67
2019-03-01T02:51:18.812Z,16.90
2019-03-01T02:53:49.350Z,16.47
2019-03-01T02:56:20.115Z,16.43
2019-03-01T02:58:50.688Z,17.93
2019-03-01T03:01:21.242Z,17.23
2019-03-01T03:03:51.871Z,16.77
2019-03-01T03:06:44.348Z,17.07
2019-03-01T03:09:14.921Z,16.80
2019-03-01T03:11:45.411Z,16.57
2019-03-01T03:14:15.942Z,17.03
2019-03-01T03:16:46.448Z,16.87
2019-03-01T03:19:16.966Z,16.93
2019-03-01T03:21:47.539Z,16.27
2019-03-01T03:24:18.100Z,18.37
2019-03-01T03:26:48.784Z,17.97
2019-03-01T03:29:19.302Z,18.00
2019-03-01T03:31:49.954Z,17.90
2019-03-01T03:34:20.467Z,17.67
2019-03-01T03:36:51.136Z,17.63
2019-03-01T03:39:21.646Z,17.37
2019-03-01T03:41:52.201Z,17.20
2019-03-01T03:44:22.724Z,17.13
2019-03-01T03:46:53.292Z,18.13
2019-03-01T03:49:23.852Z,18.87
2019-03-01T03:51:54.317Z,18.33
2019-03-01T03:54:24.953Z,17.93
2019-03-01T03:56:55.428Z,16.60
2019-03-01T03:59:25.984Z,16.87
2019-03-01T04:01:56.564Z,17.57
2019-03-01T04:04:27.054Z,16.40
2019-03-01T04:06:57.535Z,16.17
2019-03-01T04:09:28.167Z,16.73
2019-03-01T04:11:58.737Z,16.37
2019-03-01T04:14:29.212Z,15.80
2019-03-01T04:16:59.723Z,15.53
2019-03-01T04:19:30.259Z,14.27
2019-03-01T04:22:00.757Z,14.37
2019-03-01T04:24:31.257Z,14.87
2019-03-01T04:27:01.807Z,13.70
2019-03-01T04:29:32.325Z,13.50
2019-03-01T04:32:04.073Z,13.63
2019-03-01T04:34:34.630Z,12.60
2019-03-01T04:37:05.150Z,13.03
2019-03-01T04:39:35.616Z,13.43
2019-03-01T04:42:06.247Z,12.43
2019-03-01T04:44:36.755Z,12.33
2019-03-01T04:47:07.260Z,12.73
2019-03-01T04:49:37.881Z,13.40
2019-03-01T04:52:36.966Z,12.53
2019-03-01T04:55:20.128Z,11.80
2019-03-01T04:57:50.701Z,12.63
2019-03-01T05:00:23.200Z,11.87
2019-03-01T05:02:53.809Z,11.40
2019-03-01T05:05:24.327Z,12.70
2019-03-01T05:07:54.947Z,11.80
2019-03-01T05:10:25.452Z,11.93
2019-03-01T05:12:56.115Z,11.83
2019-03-01T05:15:26.915Z,11.47
2019-03-01T05:17:57.429Z,12.10
2019-03-01T05:20:29.542Z,11.63
2019-03-01T05:23:00.157Z,11.40
2019-03-01T05:25:30.872Z,11.63
2019-03-01T05:28:01.494Z,11.53
2019-03-01T05:30:34.856Z,12.73
2019-03-01T05:33:05.325Z,11.83
2019-03-01T05:35:35.938Z,12.53
2019-03-01T05:38:06.466Z,11.63
2019-03-01T05:40:36.950Z,11.87
2019-03-01T05:43:07.555Z,11.90
2019-03-01T05:45:38.061Z,12.40
2019-03-01T05:48:08.516Z,11.83
2019-03-01T05:50:39.147Z,12.13
2019-03-01T05:53:09.667Z,12.13
2019-03-01T05:55:40.220Z,13.33
2019-03-01T05:58:42.004Z,13.70
2019-03-01T06:01:34.866Z,11.67
2019-03-01T06:04:29.967Z,12.10
2019-03-01T06:07:52.660Z,11.53
2019-03-01T06:10:59.749Z,12.63
2019-03-01T06:14:32.566Z,12.67
2019-03-01T06:18:04.044Z,12.43
2019-03-01T06:21:30.965Z,13.70
2019-03-01T06:24:47.256Z,12.00
2019-03-01T06:28:00.450Z,12.73
2019-03-01T06:31:22.901Z,11.77
2019-03-01T06:34:40.995Z,12.43
2019-03-01T06:38:32.504Z,11.90
2019-03-01T06:41:50.072Z,12.57
2019-03-01T06:45:26.118Z,12.40
2019-03-01T06:47:56.640Z,12.30
2019-03-01T06:50:46.244Z,12.53
2019-03-01T06:53:16.751Z,12.20
2019-03-01T06:56:02.295Z,13.17
2019-03-01T06:58:39.611Z,12.50
2019-03-01T07:01:16.501Z,12.83
2019-03-01T07:03:52.023Z,13.07
2019-03-01T07:06:22.610Z,12.30
2019-03-01T07:08:53.210Z,13.77
2019-03-01T07:11:23.852Z,13.13
2019-03-01T07:13:54.440Z,13.07
2019-03-01T07:16:24.972Z,13.80
2019-03-01T07:18:55.709Z,14.30
2019-03-01T07:21:26.382Z,14.63
2019-03-01T07:23:56.998Z,15.53
2019-03-01T07:26:27.531Z,15.77
2019-03-01T07:28:58.064Z,16.10
2019-03-01T07:31:28.638Z,17.03
2019-03-01T07:33:59.258Z,18.47
2019-03-01T07:36:29.732Z,17.30
2019-03-01T07:39:00.271Z,16.90
2019-03-01T07:41:30.875Z,18.23
2019-03-01T07:44:01.814Z,18.55
2019-03-01T07:46:32.389Z,18.23
2019-03-01T07:49:02.926Z,19.17
2019-03-01T07:51:35.799Z,21.33
2019-03-01T07:54:05.752Z,20.13
2019-03-01T07:56:37.001Z,23.03
2019-03-01T07:59:08.579Z,21.50
2019-03-01T08:01:39.197Z,22.03
2019-03-01T08:04:09.750Z,22.57
2019-03-01T08:06:40.368Z,24.10
2019-03-01T08:09:13.976Z,24.17
2019-03-01T08:11:44.528Z,23.70
2019-03-01T08:14:15.000Z,24.23
2019-03-01T08:16:45.508Z,24.83
2019-03-01T08:19:22.308Z,23.97
2019-03-01T08:21:49.872Z,25.17
2019-03-01T08:24:20.438Z,26.40
2019-03-01T08:26:51.084Z,24.33
2019-03-01T08:29:21.635Z,25.83
2019-03-01T08:31:52.722Z,24.90
2019-03-01T08:34:24.438Z,24.97
2019-03-01T08:36:55.015Z,26.07
2019-03-01T08:39:25.747Z,24.30
2019-03-01T08:42:00.168Z,23.47
2019-03-01T08:44:28.710Z,24.80
2019-03-01T08:46:59.243Z,23.90
2019-03-01T08:49:29.831Z,24.73
2019-03-01T08:52:01.497Z,24.80
2019-03-01T08:54:32.843Z,23.17
2019-03-01T08:57:03.404Z,21.47
2019-03-01T08:59:34.054Z,21.70
2019-03-01T09:02:04.601Z,22.57
2019-03-01T09:04:37.970Z,21.53
2019-03-01T09:07:07.471Z,21.80
2019-03-01T09:09:38.023Z,19.00
2019-03-01T09:12:08.575Z,20.37
2019-03-01T09:14:39.127Z,20.00
2019-03-01T09:17:09.618Z,18.63
2019-03-01T09:19:40.205Z,17.17
2019-03-01T09:22:10.673Z,17.97
2019-03-01T09:24:41.222Z,17.50
2019-03-01T09:27:11.798Z,16.87
2019-03-01T09:29:42.371Z,16.77
2019-03-01T09:32:12.833Z,17.57
2019-03-01T09:34:44.140Z,17.27
2019-03-01T09:37:14.732Z,18.67
2019-03-01T09:39:45.288Z,16.33
2019-03-01T09:42:16.359Z,17.87
2019-03-01T09:44:46.945Z,18.33
2019-03-01T09:47:17.487Z,18.57
2019-03-01T09:49:48.017Z,16.27
2019-03-01T09:52:20.393Z,15.90
2019-03-01T09:54:50.757Z,15.23
2019-03-01T09:57:21.281Z,16.90
2019-03-01T09:59:52.045Z,16.67
2019-03-01T10:02:22.603Z,16.27
2019-03-01T10:04:53.237Z,17.57
2019-03-01T10:07:23.802Z,18.03
2019-03-01T10:09:54.351Z,18.27
2019-03-01T10:12:26.456Z,19.03
2019-03-01T10:14:57.108Z,21.10
2019-03-01T10:17:27.666Z,21.23
2019-03-01T10:19:58.142Z,23.33
2019-03-01T10:22:28.623Z,22.67
2019-03-01T10:24:59.105Z,22.10
2019-03-01T10:27:29.577Z,21.80
2019-03-01T10:30:00.258Z,23.47
2019-03-01T10:32:30.819Z,21.40
2019-03-01T10:35:01.326Z,22.87
2019-03-01T10:37:31.874Z,22.43
2019-03-01T10:40:02.370Z,20.53
2019-03-01T10:42:33.201Z,21.57
2019-03-01T10:45:03.743Z,20.67
2019-03-01T10:47:34.252Z,20.27
2019-03-01T10:50:05.225Z,19.23
2019-03-01T10:52:35.740Z,18.70
2019-03-01T10:55:07.704Z,18.53
2019-03-01T10:57:38.264Z,17.80
2019-03-01T11:00:20.742Z,17.97
2019-03-01T11:02:51.384Z,15.07
2019-03-01T11:05:22.010Z,15.10
2019-03-01T11:07:53.058Z,15.60
2019-03-01T11:10:27.506Z,13.03
2019-03-01T11:12:58.002Z,10.10
2019-03-01T11:15:28.606Z,11.03
2019-03-01T11:17:59.087Z,12.10
2019-03-01T11:20:29.548Z,11.65
2019-03-01T11:23:00.045Z,11.93
2019-03-01T11:25:30.491Z,9.43
2019-03-01T11:28:01.004Z,11.40
2019-03-01T11:30:32.078Z,11.10
2019-03-01T11:33:02.533Z,9.57
2019-03-01T11:35:33.070Z,8.00
2019-03-01T11:38:03.625Z,9.97
2019-03-01T11:40:34.593Z,11.13
2019-03-01T11:43:05.533Z,10.53
2019-03-01T11:45:36.319Z,11.83
2019-03-01T11:48:07.127Z,10.17
2019-03-01T11:50:37.573Z,9.87
2019-03-01T11:53:08.023Z,7.30
2019-03-01T11:55:38.566Z,6.83
2019-03-01T11:58:09.014Z,8.63
2019-03-01T12:00:39.464Z,8.30
2019-03-01T12:03:09.971Z,8.73
2019-03-01T12:05:40.534Z,8.60
2019-03-01T12:08:11.037Z,9.07
2019-03-01T12:10:41.536Z,9.03
2019-03-01T12:13:12.014Z,7.57
2019-03-01T12:15:42.460Z,8.83
2019-03-01T12:18:12.923Z,8.57
2019-03-01T12:20:43.434Z,8.70
2019-03-01T12:23:13.865Z,9.10
2019-03-01T12:25:44.350Z,9.07
2019-03-01T12:28:14.824Z,8.57
2019-03-01T12:30:45.334Z,8.00
2019-03-01T12:33:15.803Z,7.73
2019-03-01T12:35:46.254Z,7.73
2019-03-01T12:38:16.860Z,7.57
2019-03-01T12:40:47.298Z,9.90
2019-03-01T12:43:17.754Z,8.17
2019-03-01T12:45:48.262Z,7.90
2019-03-01T12:48:18.745Z,7.53
2019-03-01T12:50:49.196Z,9.43
2019-03-01T12:53:19.708Z,9.07
2019-03-01T12:55:50.141Z,8.20
2019-03-01T12:58:20.612Z,9.13
2019-03-01T13:00:51.111Z,6.33
2019-03-01T13:03:21.595Z,7.03
2019-03-01T13:05:52.300Z,6.37
2019-03-01T13:08:22.742Z,7.03
2019-03-01T13:10:53.246Z,7.93
2019-03-01T13:13:23.835Z,6.40
2019-03-01T13:15:54.270Z,8.20
2019-03-01T13:18:24.911Z,7.90
2019-03-01T13:20:55.497Z,8.83
2019-03-01T13:23:25.928Z,7.50
2019-03-01T13:25:56.466Z,6.97
2019-03-01T13:28:26.935Z,7.37
2019-03-01T13:30:57.542Z,8.67
2019-03-01T13:33:28.043Z,9.00
2019-03-01T13:35:59.925Z,7.70
2019-03-01T13:38:34.044Z,6.80
2019-03-01T13:41:03.051Z,7.20
2019-03-01T13:43:33.480Z,6.63
2019-03-01T13:46:03.959Z,6.60
2019-03-01T13:48:34.436Z,6.83
2019-03-01T13:51:04.929Z,6.77
2019-03-01T13:53:35.356Z,6.67
2019-03-01T13:56:05.825Z,6.00
2019-03-01T13:58:36.275Z,7.17
2019-03-01T14:01:07.550Z,7.03
2019-03-01T14:03:38.018Z,7.00
2019-03-01T14:06:08.479Z,7.90
2019-03-01T14:08:38.910Z,7.03
2019-03-01T14:11:09.414Z,7.73
2019-03-01T14:13:39.867Z,6.67
2019-03-01T14:16:10.331Z,7.67
2019-03-01T14:18:40.783Z,7.23
2019-03-01T14:21:11.257Z,7.67
2019-03-01T14:23:41.746Z,7.57
2019-03-01T14:26:15.208Z,8.27
2019-03-01T14:28:44.415Z,8.00
2019-03-01T14:31:14.869Z,7.47
2019-03-01T14:33:45.312Z,8.33
2019-03-01T14:36:15.783Z,8.20
2019-03-01T14:38:46.249Z,7.10
2019-03-01T14:41:16.746Z,7.93
2019-03-01T14:43:47.968Z,8.08
2019-03-01T14:46:20.896Z,7.53
2019-03-01T14:48:50.703Z,7.73
2019-03-01T14:51:21.162Z,8.07
2019-03-01T14:53:51.639Z,8.27
2019-03-01T14:56:34.702Z,8.40
2019-03-01T14:59:35.142Z,7.90
2019-03-01T15:03:23.982Z,8.13
2019-03-01T15:05:54.440Z,6.93
2019-03-01T15:08:24.954Z,7.17
2019-03-01T15:10:55.632Z,6.87
2019-03-01T15:13:27.875Z,6.90
2019-03-01T15:16:01.110Z,7.23
2019-03-01T15:18:32.386Z,7.97
2019-03-01T15:21:03.042Z,8.20
2019-03-01T15:23:33.857Z,7.30
2019-03-01T15:26:04.666Z,6.33
2019-03-01T15:28:44.753Z,5.70
2019-03-01T15:31:15.219Z,5.20
2019-03-01T15:33:47.059Z,4.22
2019-03-01T15:36:19.177Z,4.70
2019-03-01T15:38:49.903Z,4.60
2019-03-01T15:41:20.525Z,4.97
2019-03-01T15:43:51.016Z,4.20
2019-03-01T15:46:21.511Z,4.80
2019-03-01T15:48:52.081Z,4.63
2019-03-01T15:51:22.556Z,4.47
2019-03-01T15:53:53.064Z,4.93
2019-03-01T15:56:25.743Z,4.47
2019-03-01T15:58:56.431Z,4.45
2019-03-01T16:01:26.908Z,4.67
2019-03-01T16:03:58.041Z,4.90
2019-03-01T16:06:28.605Z,4.10
2019-03-01T16:08:59.062Z,3.90
2019-03-01T16:11:31.012Z,3.80
2019-03-01T16:14:01.625Z,3.43
2019-03-01T16:16:32.081Z,3.90
2019-03-01T16:19:03.698Z,4.70
2019-03-01T16:21:34.133Z,4.13
2019-03-01T16:24:05.061Z,4.00
2019-03-01T16:26:37.333Z,3.67
2019-03-01T16:29:08.102Z,3.30
2019-03-01T16:31:38.605Z,3.50
2019-03-01T16:34:09.117Z,3.50
2019-03-01T16:36:45.883Z,3.63
2019-03-01T16:39:16.584Z,3.50
2019-03-01T16:41:47.076Z,3.97
2019-03-01T16:44:17.591Z,5.30
2019-03-01T16:46:48.056Z,3.70
2019-03-01T16:49:18.502Z,3.13
2019-03-01T16:51:50.700Z,3.50
2019-03-01T16:54:21.263Z,3.00
2019-03-01T16:56:51.873Z,3.80
2019-03-01T16:59:22.420Z,3.13
2019-03-01T17:01:53.071Z,3.20
2019-03-01T17:04:27.451Z,3.23
2019-03-01T17:06:58.258Z,3.87
2019-03-01T17:09:28.796Z,3.00
2019-03-01T17:11:59.258Z,2.87
2019-03-01T17:14:29.832Z,3.10
2019-03-01T17:17:00.734Z,3.23
2019-03-01T17:19:31.244Z,3.23
2019-03-01T17:22:04.465Z,2.90
2019-03-01T17:24:34.969Z,3.07
2019-03-01T17:27:06.636Z,3.03
2019-03-01T17:29:39.248Z,3.53
2019-03-01T17:32:09.477Z,3.20
2019-03-01T17:34:39.938Z,3.37
2019-03-01T17:37:10.507Z,3.17
2019-03-01T17:39:41.012Z,2.90
2019-03-01T17:42:11.601Z,3.80
2019-03-01T17:44:44.550Z,3.60
2019-03-01T17:47:16.077Z,4.00
2019-03-01T17:49:46.772Z,3.20
2019-03-01T17:52:17.307Z,4.03
2019-03-01T17:54:47.814Z,3.67
2019-03-01T17:57:20.071Z,3.50
2019-03-01T17:59:50.596Z,3.40
2019-03-01T18:02:21.103Z,3.03
2019-03-01T18:04:51.735Z,3.20
2019-03-01T18:07:23.711Z,3.20
2019-03-01T18:09:56.623Z,3.07
2019-03-01T18:12:27.235Z,3.60
2019-03-01T18:14:57.893Z,3.67
2019-03-01T18:17:28.428Z,3.00
2019-03-01T18:20:01.558Z,3.20
2019-03-01T18:22:31.092Z,3.40
2019-03-01T18:25:01.601Z,2.73
2019-03-01T18:27:32.162Z,2.67
2019-03-01T18:30:03.895Z,2.70
2019-03-01T18:32:34.384Z,3.13
2019-03-01T18:35:08.020Z,3.20
2019-03-01T18:37:38.687Z,2.63
2019-03-01T18:40:13.469Z,2.40
2019-03-01T18:42:42.497Z,3.03
2019-03-01T18:45:15.770Z,2.90
2019-03-01T18:47:46.257Z,2.67
2019-03-01T18:50:20.972Z,2.60
2019-03-01T18:52:53.171Z,2.53
2019-03-01T18:55:24.850Z,2.80
2019-03-01T18:57:56.435Z,2.80
2019-03-01T19:00:35.782Z,2.30
2019-03-01T19:03:05.761Z,2.33
2019-03-01T19:05:40.326Z,2.70
2019-03-01T19:08:09.087Z,2.43
2019-03-01T19:10:39.708Z,2.50
2019-03-01T19:13:10.155Z,2.20
2019-03-01T19:15:40.729Z,2.50
2019-03-01T19:18:13.581Z,2.40
2019-03-01T19:20:43.374Z,2.00
2019-03-01T19:23:13.910Z,2.50
2019-03-01T19:25:44.366Z,2.67
2019-03-01T19:28:14.895Z,2.10
2019-03-01T19:30:45.835Z,2.50
2019-03-01T19:33:17.626Z,2.50
2019-03-01T19:35:48.561Z,2.30
2019-03-01T19:38:21.845Z,2.20
2019-03-01T19:40:51.427Z,1.87
2019-03-01T19:43:22.024Z,1.67
2019-03-01T19:45:52.591Z,1.50
2019-03-01T19:48:23.396Z,1.57
2019-03-01T19:50:53.920Z,1.80
2019-03-01T19:53:25.551Z,1.80
2019-03-01T19:55:58.705Z,1.83
2019-03-01T19:58:29.221Z,1.83
2019-03-01T20:00:59.685Z,1.50
2019-03-01T20:03:30.502Z,2.10
2019-03-01T20:06:01.018Z,1.93
2019-03-01T20:08:31.479Z,1.90
2019-03-01T20:11:01.954Z,2.07
2019-03-01T20:13:32.682Z,1.70
2019-03-01T20:16:03.133Z,1.73
2019-03-01T20:18:34.035Z,2.30
2019-03-01T20:21:05.865Z,1.67
2019-03-01T20:23:37.994Z,2.10
2019-03-01T20:26:08.119Z,2.27
2019-03-01T20:28:38.726Z,2.17
2019-03-01T20:31:09.336Z,2.20
2019-03-01T20:33:39.778Z,2.00
2019-03-01T20:36:10.244Z,1.87
2019-03-01T20:38:40.963Z,2.10
2019-03-01T20:41:12.292Z,1.90
2019-03-01T20:43:43.012Z,1.90
2019-03-01T20:46:13.454Z,1.57
2019-03-01T20:48:43.895Z,2.23
2019-03-01T20:51:14.451Z,1.93
2019-03-01T20:53:45.747Z,1.77
2019-03-01T20:56:17.249Z,2.00
2019-03-01T20:58:50.695Z,1.70
2019-03-01T21:01:21.163Z,1.77
2019-03-01T21:03:51.684Z,1.73
2019-03-01T21:06:22.116Z,1.90
2019-03-01T21:08:52.598Z,1.80
2019-03-01T21:11:25.422Z,1.93
2019-03-01T21:13:56.441Z,1.50
2019-03-01T21:16:26.972Z,1.83
2019-03-01T21:18:59.933Z,1.60
2019-03-01T21:21:30.440Z,1.50
2019-03-01T21:24:00.892Z,1.97
2019-03-01T21:26:31.392Z,1.73
2019-03-01T21:29:01.866Z,1.80
2019-03-01T21:31:35.371Z,1.93
2019-03-01T21:34:04.579Z,1.90
2019-03-01T21:36:35.065Z,1.80
2019-03-01T21:39:06.259Z,1.80
2019-03-01T21:41:36.791Z,1.60
2019-03-01T21:44:10.226Z,1.80
2019-03-01T21:46:39.492Z,2.10
2019-03-01T21:49:09.978Z,1.80
2019-03-01T21:51:40.463Z,1.70
2019-03-01T21:54:12.650Z,2.00
2019-03-01T21:56:55.399Z,1.90
2019-03-01T21:59:17.279Z,1.83
2019-03-01T22:01:47.571Z,2.27
2019-03-01T22:04:18.010Z,2.10
2019-03-01T22:06:48.530Z,2.00
2019-03-01T22:09:20.644Z,2.00
2019-03-01T22:11:51.357Z,2.47
2019-03-01T22:14:21.818Z,1.97
2019-03-01T22:16:52.290Z,2.00
2019-03-01T22:19:22.753Z,2.30
2019-03-01T22:21:54.682Z,2.20
2019-03-01T22:24:27.346Z,2.50
2019-03-01T22:27:00.336Z,1.80
2019-03-01T22:29:30.779Z,2.13
2019-03-01T22:32:01.263Z,2.00
2019-03-01T22:34:32.151Z,2.10
2019-03-01T22:37:02.644Z,2.07
2019-03-01T22:39:33.094Z,1.90
2019-03-01T22:42:03.696Z,2.03
2019-03-01T22:44:36.514Z,1.80
2019-03-01T22:47:06.382Z,1.93
2019-03-01T22:49:37.114Z,2.10
2019-03-01T22:52:07.571Z,2.20
2019-03-01T22:54:38.078Z,1.90
2019-03-01T22:57:08.586Z,1.70
2019-03-01T22:59:39.051Z,2.10
2019-03-01T23:02:13.803Z,2.03
2019-03-01T23:04:44.336Z,2.10
2019-03-01T23:07:14.788Z,2.37
2019-03-01T23:09:46.537Z,2.47
2019-03-01T23:12:17.429Z,2.13
2019-03-01T23:14:47.889Z,2.00
2019-03-01T23:17:18.440Z,2.50
2019-03-01T23:19:51.689Z,2.37
2019-03-01T23:22:21.058Z,2.40
2019-03-01T23:24:51.486Z,2.30
2019-03-01T23:27:21.940Z,2.80
2019-03-01T23:29:54.352Z,2.50
2019-03-01T23:32:24.666Z,2.50
2019-03-01T23:34:55.127Z,2.90
2019-03-01T23:37:25.711Z,2.93
2019-03-01T23:39:57.098Z,3.03
2019-03-01T23:42:28.344Z,3.00
2019-03-01T23:44:58.914Z,3.30
2019-03-01T23:47:29.489Z,3.40
2019-03-01T23:50:00.589Z,3.20
2019-03-01T23:52:31.144Z,3.73
2019-03-01T23:55:01.641Z,4.07
2019-03-01T23:57:32.110Z,4.00
